sensor_id;sensor_type;location;lat;lon;timestamp;P1;durP1;ratioP1;P2;durP2;ratioP2
82028;SDS011;71590;52.216;13.448;2023-08-21T00:01:19;7.25;;;5.82;;
82028;SDS011;71590;52.216;13.448;2023-08-21T00:06:20;8.45;;;7.07;;
82028;SDS011;71590;52.216;13.448;2023-08-21T00:11:21;9.23;;;6.55;;
82028;SDS011;71590;52.216;13.448;2023-08-21T00:16:22;9.65;;;7.45;;
82028;SDS011;71590;52.216;13.448;2023-08-21T00:21:23;8.65;;;7.78;;
82028;SDS011;71590;52.216;13.448;2023-08-21T00:26:24;10.55;;;8.35;;
82028;SDS011;71590;52.216;13.448;2023-08-21T00:31:25;6.63;;;5.88;;
82028;SDS011;71590;52.216;13.448;2023-08-21T00:36:26;7.57;;;6.78;;
82028;SDS011;71590;52.216;13.448;2023-08-21T00:41:27;8.82;;;7.53;;
82028;SDS011;71590;52.216;13.448;2023-08-21T00:46:28;8.23;;;6.95;;
82028;SDS011;71590;52.216;13.448;2023-08-21T00:51:29;9.45;;;8.65;;
82028;SDS011;71590;52.216;13.448;2023-08-21T00:56:32;10.82;;;9.57;;
82028;SDS011;71590;52.216;13.448;2023-08-21T01:01:34;13.45;;;8.60;;
82028;SDS011;71590;52.216;13.448;2023-08-21T01:06:36;9.20;;;8.40;;
82028;SDS011;71590;52.216;13.448;2023-08-21T01:11:50;9.60;;;8.43;;
82028;SDS011;71590;52.216;13.448;2023-08-21T01:16:54;10.00;;;8.30;;
82028;SDS011;71590;52.216;13.448;2023-08-21T01:21:57;12.15;;;10.48;;
82028;SDS011;71590;52.216;13.448;2023-08-21T01:26:58;11.98;;;10.60;;
82028;SDS011;71590;52.216;13.448;2023-08-21T01:37:04;10.82;;;9.73;;
82028;SDS011;71590;52.216;13.448;2023-08-21T01:42:06;10.18;;;9.10;;
82028;SDS011;71590;52.216;13.448;2023-08-21T01:47:07;12.32;;;11.13;;
82028;SDS011;71590;52.216;13.448;2023-08-21T01:52:10;17.88;;;10.57;;
82028;SDS011;71590;52.216;13.448;2023-08-21T01:57:11;10.10;;;9.20;;
82028;SDS011;71590;52.216;13.448;2023-08-21T02:02:12;11.10;;;10.00;;
82028;SDS011;71590;52.216;13.448;2023-08-21T02:07:13;10.02;;;9.10;;
82028;SDS011;71590;52.216;13.448;2023-08-21T02:12:14;11.07;;;9.18;;
82028;SDS011;71590;52.216;13.448;2023-08-21T02:17:15;10.57;;;9.55;;
82028;SDS011;71590;52.216;13.448;2023-08-21T02:22:16;9.80;;;8.82;;
82028;SDS011;71590;52.216;13.448;2023-08-21T02:27:17;9.60;;;8.70;;
82028;SDS011;71590;52.216;13.448;2023-08-21T02:32:18;9.43;;;8.50;;
82028;SDS011;71590;52.216;13.448;2023-08-21T02:37:19;10.00;;;8.65;;
82028;SDS011;71590;52.216;13.448;2023-08-21T02:42:22;9.40;;;8.50;;
82028;SDS011;71590;52.216;13.448;2023-08-21T02:47:23;10.20;;;9.10;;
82028;SDS011;71590;52.216;13.448;2023-08-21T02:52:24;9.98;;;9.15;;
82028;SDS011;71590;52.216;13.448;2023-08-21T02:57:25;11.23;;;9.32;;
82028;SDS011;71590;52.216;13.448;2023-08-21T03:02:27;10.60;;;9.60;;
82028;SDS011;71590;52.216;13.448;2023-08-21T03:07:28;10.93;;;9.85;;
82028;SDS011;71590;52.216;13.448;2023-08-21T03:12:29;14.02;;;10.18;;
82028;SDS011;71590;52.216;13.448;2023-08-21T03:17:30;10.80;;;9.73;;
82028;SDS011;71590;52.216;13.448;2023-08-21T03:22:31;10.88;;;9.98;;
82028;SDS011;71590;52.216;13.448;2023-08-21T03:27:32;11.60;;;9.82;;
82028;SDS011;71590;52.216;13.448;2023-08-21T03:32:33;11.60;;;9.75;;
82028;SDS011;71590;52.216;13.448;2023-08-21T03:37:34;11.20;;;9.13;;
82028;SDS011;71590;52.216;13.448;2023-08-21T03:42:36;10.18;;;8.55;;
82028;SDS011;71590;52.216;13.448;2023-08-21T03:47:37;10.70;;;9.60;;
82028;SDS011;71590;52.216;13.448;2023-08-21T03:52:44;10.13;;;8.73;;
82028;SDS011;71590;52.216;13.448;2023-08-21T03:57:45;12.77;;;8.90;;
82028;SDS011;71590;52.216;13.448;2023-08-21T04:02:46;10.82;;;9.00;;
82028;SDS011;71590;52.216;13.448;2023-08-21T04:07:47;10.35;;;9.32;;
82028;SDS011;71590;52.216;13.448;2023-08-21T04:12:48;15.35;;;10.15;;
82028;SDS011;71590;52.216;13.448;2023-08-21T04:17:49;9.60;;;8.55;;
82028;SDS011;71590;52.216;13.448;2023-08-21T04:22:50;10.77;;;9.60;;
82028;SDS011;71590;52.216;13.448;2023-08-21T04:27:51;12.13;;;9.75;;
82028;SDS011;71590;52.216;13.448;2023-08-21T04:32:52;11.98;;;9.27;;
82028;SDS011;71590;52.216;13.448;2023-08-21T04:37:53;12.82;;;11.48;;
82028;SDS011;71590;52.216;13.448;2023-08-21T04:42:56;12.27;;;11.18;;
82028;SDS011;71590;52.216;13.448;2023-08-21T04:47:57;13.93;;;10.70;;
82028;SDS011;71590;52.216;13.448;2023-08-21T04:52:59;12.65;;;10.35;;
82028;SDS011;71590;52.216;13.448;2023-08-21T04:58:00;12.27;;;11.07;;
82028;SDS011;71590;52.216;13.448;2023-08-21T05:03:01;11.45;;;10.45;;
82028;SDS011;71590;52.216;13.448;2023-08-21T05:08:03;13.57;;;12.23;;
82028;SDS011;71590;52.216;13.448;2023-08-21T05:13:04;13.82;;;11.90;;
82028;SDS011;71590;52.216;13.448;2023-08-21T05:18:06;14.60;;;12.02;;
82028;SDS011;71590;52.216;13.448;2023-08-21T05:23:07;13.73;;;12.50;;
82028;SDS011;71590;52.216;13.448;2023-08-21T05:28:08;13.95;;;12.57;;
82028;SDS011;71590;52.216;13.448;2023-08-21T05:33:09;13.52;;;12.20;;
82028;SDS011;71590;52.216;13.448;2023-08-21T05:38:10;14.38;;;11.95;;
82028;SDS011;71590;52.216;13.448;2023-08-21T05:43:11;14.88;;;13.38;;
82028;SDS011;71590;52.216;13.448;2023-08-21T05:48:16;13.52;;;12.20;;
82028;SDS011;71590;52.216;13.448;2023-08-21T05:53:18;15.60;;;13.07;;
82028;SDS011;71590;52.216;13.448;2023-08-21T05:58:19;13.40;;;12.15;;
82028;SDS011;71590;52.216;13.448;2023-08-21T06:03:20;14.15;;;12.95;;
82028;SDS011;71590;52.216;13.448;2023-08-21T06:08:53;20.27;;;14.43;;
82028;SDS011;71590;52.216;13.448;2023-08-21T06:13:55;22.15;;;13.55;;
82028;SDS011;71590;52.216;13.448;2023-08-21T06:18:56;16.33;;;12.38;;
82028;SDS011;71590;52.216;13.448;2023-08-21T06:23:57;15.00;;;12.88;;
82028;SDS011;71590;52.216;13.448;2023-08-21T06:28:58;14.35;;;12.93;;
82028;SDS011;71590;52.216;13.448;2023-08-21T06:33:59;14.80;;;13.07;;
82028;SDS011;71590;52.216;13.448;2023-08-21T06:39:00;13.07;;;11.90;;
82028;SDS011;71590;52.216;13.448;2023-08-21T06:44:01;13.18;;;11.98;;
82028;SDS011;71590;52.216;13.448;2023-08-21T06:49:03;14.48;;;13.18;;
82028;SDS011;71590;52.216;13.448;2023-08-21T06:54:04;13.32;;;11.90;;
82028;SDS011;71590;52.216;13.448;2023-08-21T06:59:05;12.82;;;11.57;;
82028;SDS011;71590;52.216;13.448;2023-08-21T07:04:06;14.00;;;12.55;;
82028;SDS011;71590;52.216;13.448;2023-08-21T07:09:07;13.40;;;12.25;;
82028;SDS011;71590;52.216;13.448;2023-08-21T07:14:08;13.07;;;11.93;;
82028;SDS011;71590;52.216;13.448;2023-08-21T07:19:10;13.23;;;11.93;;
82028;SDS011;71590;52.216;13.448;2023-08-21T07:24:11;14.88;;;11.85;;
82028;SDS011;71590;52.216;13.448;2023-08-21T07:29:11;11.70;;;10.65;;
82028;SDS011;71590;52.216;13.448;2023-08-21T07:34:13;10.60;;;9.70;;
82028;SDS011;71590;52.216;13.448;2023-08-21T07:39:14;11.55;;;10.35;;
82028;SDS011;71590;52.216;13.448;2023-08-21T07:44:14;9.93;;;8.85;;
82028;SDS011;71590;52.216;13.448;2023-08-21T07:49:16;9.73;;;7.95;;
82028;SDS011;71590;52.216;13.448;2023-08-21T07:54:17;9.45;;;6.75;;
82028;SDS011;71590;52.216;13.448;2023-08-21T07:59:18;10.13;;;6.70;;
82028;SDS011;71590;52.216;13.448;2023-08-21T08:04:20;7.88;;;7.18;;
82028;SDS011;71590;52.216;13.448;2023-08-21T08:09:21;6.18;;;5.30;;
82028;SDS011;71590;52.216;13.448;2023-08-21T08:14:22;8.48;;;6.30;;
82028;SDS011;71590;52.216;13.448;2023-08-21T08:19:23;9.20;;;6.40;;
82028;SDS011;71590;52.216;13.448;2023-08-21T08:24:24;7.43;;;6.65;;
82028;SDS011;71590;52.216;13.448;2023-08-21T08:29:26;7.95;;;5.35;;
82028;SDS011;71590;52.216;13.448;2023-08-21T08:34:27;5.90;;;4.97;;
82028;SDS011;71590;52.216;13.448;2023-08-21T08:39:28;7.22;;;5.00;;
82028;SDS011;71590;52.216;13.448;2023-08-21T08:44:29;10.18;;;4.80;;
82028;SDS011;71590;52.216;13.448;2023-08-21T08:49:30;6.50;;;4.82;;
82028;SDS011;71590;52.216;13.448;2023-08-21T08:54:32;10.43;;;4.97;;
82028;SDS011;71590;52.216;13.448;2023-08-21T08:59:35;5.88;;;4.05;;
82028;SDS011;71590;52.216;13.448;2023-08-21T09:04:36;4.82;;;4.43;;
82028;SDS011;71590;52.216;13.448;2023-08-21T09:09:38;4.85;;;4.25;;
82028;SDS011;71590;52.216;13.448;2023-08-21T09:14:40;5.43;;;3.85;;
82028;SDS011;71590;52.216;13.448;2023-08-21T09:19:41;7.40;;;3.60;;
82028;SDS011;71590;52.216;13.448;2023-08-21T09:24:59;7.03;;;3.80;;
82028;SDS011;71590;52.216;13.448;2023-08-21T09:30:10;5.53;;;4.07;;
82028;SDS011;71590;52.216;13.448;2023-08-21T09:35:15;5.65;;;3.45;;
82028;SDS011;71590;52.216;13.448;2023-08-21T09:40:16;8.02;;;3.40;;
82028;SDS011;71590;52.216;13.448;2023-08-21T09:45:19;4.35;;;2.83;;
82028;SDS011;71590;52.216;13.448;2023-08-21T09:50:21;3.55;;;2.53;;
82028;SDS011;71590;52.216;13.448;2023-08-21T09:55:22;3.25;;;2.20;;
82028;SDS011;71590;52.216;13.448;2023-08-21T10:00:24;2.35;;;2.10;;
82028;SDS011;71590;52.216;13.448;2023-08-21T10:05:26;3.17;;;1.77;;
82028;SDS011;71590;52.216;13.448;2023-08-21T10:10:31;4.45;;;2.05;;
82028;SDS011;71590;52.216;13.448;2023-08-21T10:15:32;3.80;;;2.08;;
82028;SDS011;71590;52.216;13.448;2023-08-21T10:20:34;2.05;;;1.80;;
82028;SDS011;71590;52.216;13.448;2023-08-21T10:25:40;4.47;;;2.35;;
82028;SDS011;71590;52.216;13.448;2023-08-21T10:30:42;3.72;;;2.15;;
82028;SDS011;71590;52.216;13.448;2023-08-21T10:35:43;3.00;;;2.13;;
82028;SDS011;71590;52.216;13.448;2023-08-21T10:41:26;3.05;;;2.03;;
82028;SDS011;71590;52.216;13.448;2023-08-21T10:46:11;2.28;;;1.98;;
82028;SDS011;71590;52.216;13.448;2023-08-21T10:51:12;7.25;;;2.25;;
82028;SDS011;71590;52.216;13.448;2023-08-21T10:56:13;5.13;;;2.20;;
82028;SDS011;71590;52.216;13.448;2023-08-21T11:01:14;4.53;;;2.10;;
82028;SDS011;71590;52.216;13.448;2023-08-21T11:06:18;5.93;;;2.17;;
82028;SDS011;71590;52.216;13.448;2023-08-21T11:11:19;3.88;;;1.70;;
82028;SDS011;71590;52.216;13.448;2023-08-21T11:16:20;4.82;;;1.70;;
82028;SDS011;71590;52.216;13.448;2023-08-21T11:21:22;5.85;;;2.17;;
82028;SDS011;71590;52.216;13.448;2023-08-21T11:26:25;2.35;;;1.73;;
82028;SDS011;71590;52.216;13.448;2023-08-21T11:31:26;4.28;;;1.85;;
82028;SDS011;71590;52.216;13.448;2023-08-21T11:36:28;3.80;;;1.98;;
82028;SDS011;71590;52.216;13.448;2023-08-21T11:41:29;3.33;;;1.83;;
82028;SDS011;71590;52.216;13.448;2023-08-21T11:46:30;3.05;;;1.60;;
82028;SDS011;71590;52.216;13.448;2023-08-21T11:51:37;4.60;;;2.10;;
82028;SDS011;71590;52.216;13.448;2023-08-21T11:56:38;2.80;;;1.92;;
82028;SDS011;71590;52.216;13.448;2023-08-21T12:01:41;4.50;;;1.80;;
82028;SDS011;71590;52.216;13.448;2023-08-21T12:06:45;5.40;;;1.95;;
82028;SDS011;71590;52.216;13.448;2023-08-21T12:11:46;4.72;;;1.60;;
82028;SDS011;71590;52.216;13.448;2023-08-21T12:16:47;4.22;;;1.85;;
82028;SDS011;71590;52.216;13.448;2023-08-21T12:21:48;4.22;;;1.77;;
82028;SDS011;71590;52.216;13.448;2023-08-21T12:26:49;5.00;;;1.55;;
82028;SDS011;71590;52.216;13.448;2023-08-21T12:31:51;2.35;;;1.73;;
82028;SDS011;71590;52.216;13.448;2023-08-21T12:36:52;4.22;;;1.90;;
82028;SDS011;71590;52.216;13.448;2023-08-21T12:41:53;3.05;;;1.90;;
82028;SDS011;71590;52.216;13.448;2023-08-21T12:46:54;5.13;;;1.70;;
82028;SDS011;71590;52.216;13.448;2023-08-21T12:51:55;4.80;;;1.70;;
82028;SDS011;71590;52.216;13.448;2023-08-21T12:56:56;3.72;;;1.65;;
82028;SDS011;71590;52.216;13.448;2023-08-21T13:02:00;3.95;;;1.98;;
82028;SDS011;71590;52.216;13.448;2023-08-21T13:07:01;3.15;;;1.70;;
82028;SDS011;71590;52.216;13.448;2023-08-21T13:12:03;3.38;;;1.80;;
82028;SDS011;71590;52.216;13.448;2023-08-21T13:17:04;2.00;;;1.58;;
82028;SDS011;71590;52.216;13.448;2023-08-21T13:22:05;3.42;;;1.45;;
82028;SDS011;71590;52.216;13.448;2023-08-21T13:27:06;4.25;;;1.75;;
82028;SDS011;71590;52.216;13.448;2023-08-21T13:32:07;3.22;;;1.60;;
82028;SDS011;71590;52.216;13.448;2023-08-21T13:37:08;7.70;;;2.28;;
82028;SDS011;71590;52.216;13.448;2023-08-21T13:42:09;3.83;;;1.92;;
82028;SDS011;71590;52.216;13.448;2023-08-21T13:47:10;4.38;;;2.15;;
82028;SDS011;71590;52.216;13.448;2023-08-21T13:52:11;4.40;;;2.05;;
82028;SDS011;71590;52.216;13.448;2023-08-21T13:57:12;4.57;;;2.55;;
82028;SDS011;71590;52.216;13.448;2023-08-21T14:02:13;7.63;;;2.20;;
82028;SDS011;71590;52.216;13.448;2023-08-21T14:07:14;5.40;;;2.50;;
82028;SDS011;71590;52.216;13.448;2023-08-21T14:12:15;2.80;;;2.38;;
82028;SDS011;71590;52.216;13.448;2023-08-21T14:17:16;5.85;;;2.67;;
82028;SDS011;71590;52.216;13.448;2023-08-21T14:22:17;7.72;;;2.25;;
82028;SDS011;71590;52.216;13.448;2023-08-21T14:27:18;2.50;;;2.30;;
82028;SDS011;71590;52.216;13.448;2023-08-21T14:32:19;3.60;;;2.08;;
82028;SDS011;71590;52.216;13.448;2023-08-21T14:37:20;3.67;;;2.17;;
82028;SDS011;71590;52.216;13.448;2023-08-21T14:42:23;3.63;;;2.35;;
82028;SDS011;71590;52.216;13.448;2023-08-21T14:47:24;7.13;;;2.50;;
82028;SDS011;71590;52.216;13.448;2023-08-21T14:52:25;5.63;;;2.53;;
82028;SDS011;71590;52.216;13.448;2023-08-21T14:57:26;5.15;;;2.38;;
82028;SDS011;71590;52.216;13.448;2023-08-21T15:02:27;2.47;;;2.03;;
82028;SDS011;71590;52.216;13.448;2023-08-21T15:07:28;3.63;;;2.28;;
82028;SDS011;71590;52.216;13.448;2023-08-21T15:12:29;2.50;;;1.85;;
82028;SDS011;71590;52.216;13.448;2023-08-21T15:17:30;4.50;;;2.28;;
82028;SDS011;71590;52.216;13.448;2023-08-21T15:22:31;4.60;;;2.40;;
82028;SDS011;71590;52.216;13.448;2023-08-21T15:27:32;5.63;;;2.38;;
82028;SDS011;71590;52.216;13.448;2023-08-21T15:32:33;5.00;;;2.40;;
82028;SDS011;71590;52.216;13.448;2023-08-21T15:37:35;3.53;;;2.05;;
82028;SDS011;71590;52.216;13.448;2023-08-21T15:42:36;2.28;;;1.98;;
82028;SDS011;71590;52.216;13.448;2023-08-21T15:47:38;4.25;;;2.05;;
82028;SDS011;71590;52.216;13.448;2023-08-21T15:52:39;4.35;;;2.58;;
82028;SDS011;71590;52.216;13.448;2023-08-21T15:57:40;4.85;;;2.17;;
82028;SDS011;71590;52.216;13.448;2023-08-21T16:02:41;3.15;;;2.42;;
82028;SDS011;71590;52.216;13.448;2023-08-21T16:07:42;5.00;;;2.40;;
82028;SDS011;71590;52.216;13.448;2023-08-21T16:12:43;3.47;;;2.33;;
82028;SDS011;71590;52.216;13.448;2023-08-21T16:17:44;4.50;;;2.10;;
82028;SDS011;71590;52.216;13.448;2023-08-21T16:22:45;4.28;;;2.17;;
82028;SDS011;71590;52.216;13.448;2023-08-21T16:27:48;4.00;;;2.30;;
82028;SDS011;71590;52.216;13.448;2023-08-21T16:32:49;4.72;;;2.38;;
82028;SDS011;71590;52.216;13.448;2023-08-21T16:37:51;5.97;;;2.45;;
82028;SDS011;71590;52.216;13.448;2023-08-21T16:42:52;3.30;;;2.17;;
82028;SDS011;71590;52.216;13.448;2023-08-21T16:47:53;6.22;;;2.50;;
82028;SDS011;71590;52.216;13.448;2023-08-21T16:52:54;3.40;;;2.08;;
82028;SDS011;71590;52.216;13.448;2023-08-21T16:57:55;3.40;;;2.05;;
82028;SDS011;71590;52.216;13.448;2023-08-21T17:02:56;3.47;;;2.22;;
82028;SDS011;71590;52.216;13.448;2023-08-21T17:07:59;5.93;;;1.80;;
82028;SDS011;71590;52.216;13.448;2023-08-21T17:13:00;2.55;;;2.05;;
82028;SDS011;71590;52.216;13.448;2023-08-21T17:18:01;4.43;;;2.50;;
82028;SDS011;71590;52.216;13.448;2023-08-21T17:23:02;3.28;;;2.20;;
82028;SDS011;71590;52.216;13.448;2023-08-21T17:28:03;4.50;;;2.05;;
82028;SDS011;71590;52.216;13.448;2023-08-21T17:33:04;3.35;;;1.92;;
82028;SDS011;71590;52.216;13.448;2023-08-21T17:38:05;6.57;;;2.55;;
82028;SDS011;71590;52.216;13.448;2023-08-21T17:43:06;4.05;;;2.13;;
82028;SDS011;71590;52.216;13.448;2023-08-21T17:48:07;5.63;;;2.20;;
82028;SDS011;71590;52.216;13.448;2023-08-21T17:53:08;5.15;;;2.00;;
82028;SDS011;71590;52.216;13.448;2023-08-21T17:58:10;5.20;;;2.20;;
82028;SDS011;71590;52.216;13.448;2023-08-21T18:03:11;5.68;;;2.50;;
82028;SDS011;71590;52.216;13.448;2023-08-21T18:08:13;2.65;;;2.38;;
82028;SDS011;71590;52.216;13.448;2023-08-21T18:13:14;4.70;;;2.63;;
82028;SDS011;71590;52.216;13.448;2023-08-21T18:18:16;4.43;;;2.22;;
82028;SDS011;71590;52.216;13.448;2023-08-21T18:23:19;3.83;;;1.85;;
82028;SDS011;71590;52.216;13.448;2023-08-21T18:28:22;3.90;;;2.20;;
82028;SDS011;71590;52.216;13.448;2023-08-21T18:33:23;4.68;;;2.30;;
82028;SDS011;71590;52.216;13.448;2023-08-21T18:38:24;5.28;;;1.90;;
82028;SDS011;71590;52.216;13.448;2023-08-21T18:43:26;6.63;;;2.10;;
82028;SDS011;71590;52.216;13.448;2023-08-21T18:48:27;3.15;;;1.80;;
82028;SDS011;71590;52.216;13.448;2023-08-21T18:53:28;6.25;;;2.13;;
82028;SDS011;71590;52.216;13.448;2023-08-21T18:58:31;3.65;;;2.25;;
82028;SDS011;71590;52.216;13.448;2023-08-21T19:03:32;4.20;;;2.00;;
82028;SDS011;71590;52.216;13.448;2023-08-21T19:08:33;4.60;;;2.55;;
82028;SDS011;71590;52.216;13.448;2023-08-21T19:13:34;9.73;;;6.40;;
82028;SDS011;71590;52.216;13.448;2023-08-21T19:18:36;7.75;;;5.10;;
82028;SDS011;71590;52.216;13.448;2023-08-21T19:23:37;14.95;;;5.32;;
82028;SDS011;71590;52.216;13.448;2023-08-21T19:28:38;7.35;;;2.00;;
82028;SDS011;71590;52.216;13.448;2023-08-21T19:33:38;4.00;;;2.20;;
82028;SDS011;71590;52.216;13.448;2023-08-21T19:38:40;8.20;;;2.50;;
82028;SDS011;71590;52.216;13.448;2023-08-21T19:43:42;5.60;;;2.60;;
82028;SDS011;71590;52.216;13.448;2023-08-21T19:48:43;5.63;;;2.60;;
82028;SDS011;71590;52.216;13.448;2023-08-21T19:53:44;6.50;;;2.75;;
82028;SDS011;71590;52.216;13.448;2023-08-21T19:58:45;6.55;;;3.25;;
82028;SDS011;71590;52.216;13.448;2023-08-21T20:03:46;10.77;;;3.17;;
82028;SDS011;71590;52.216;13.448;2023-08-21T20:08:47;4.90;;;2.50;;
82028;SDS011;71590;52.216;13.448;2023-08-21T20:13:48;2.55;;;2.00;;
82028;SDS011;71590;52.216;13.448;2023-08-21T20:18:49;6.13;;;2.60;;
82028;SDS011;71590;52.216;13.448;2023-08-21T20:23:50;6.25;;;2.40;;
82028;SDS011;71590;52.216;13.448;2023-08-21T20:28:51;6.38;;;2.85;;
82028;SDS011;71590;52.216;13.448;2023-08-21T20:33:52;3.75;;;2.20;;
82028;SDS011;71590;52.216;13.448;2023-08-21T20:38:53;7.07;;;2.88;;
82028;SDS011;71590;52.216;13.448;2023-08-21T20:43:54;4.00;;;2.47;;
82028;SDS011;71590;52.216;13.448;2023-08-21T20:48:55;5.75;;;2.70;;
82028;SDS011;71590;52.216;13.448;2023-08-21T20:53:56;4.70;;;2.60;;
82028;SDS011;71590;52.216;13.448;2023-08-21T20:58:57;4.40;;;2.70;;
82028;SDS011;71590;52.216;13.448;2023-08-21T21:03:58;6.88;;;2.80;;
82028;SDS011;71590;52.216;13.448;2023-08-21T21:08:59;4.65;;;3.13;;
82028;SDS011;71590;52.216;13.448;2023-08-21T21:14:01;4.68;;;2.88;;
82028;SDS011;71590;52.216;13.448;2023-08-21T21:19:03;4.57;;;2.75;;
82028;SDS011;71590;52.216;13.448;2023-08-21T21:24:04;3.67;;;2.30;;
82028;SDS011;71590;52.216;13.448;2023-08-21T21:29:05;7.68;;;2.58;;
82028;SDS011;71590;52.216;13.448;2023-08-21T21:34:07;8.32;;;2.78;;
82028;SDS011;71590;52.216;13.448;2023-08-21T21:39:07;4.80;;;2.60;;
82028;SDS011;71590;52.216;13.448;2023-08-21T21:44:08;5.07;;;2.38;;
82028;SDS011;71590;52.216;13.448;2023-08-21T21:49:09;3.97;;;2.65;;
82028;SDS011;71590;52.216;13.448;2023-08-21T21:54:10;4.50;;;2.55;;
82028;SDS011;71590;52.216;13.448;2023-08-21T21:59:12;5.25;;;2.45;;
82028;SDS011;71590;52.216;13.448;2023-08-21T22:04:13;6.03;;;2.63;;
82028;SDS011;71590;52.216;13.448;2023-08-21T22:09:14;5.30;;;2.92;;
82028;SDS011;71590;52.216;13.448;2023-08-21T22:14:14;6.85;;;2.90;;
82028;SDS011;71590;52.216;13.448;2023-08-21T22:19:17;4.13;;;2.35;;
82028;SDS011;71590;52.216;13.448;2023-08-21T22:24:18;4.10;;;2.78;;
82028;SDS011;71590;52.216;13.448;2023-08-21T22:29:19;5.85;;;2.58;;
82028;SDS011;71590;52.216;13.448;2023-08-21T22:34:21;4.93;;;2.58;;
82028;SDS011;71590;52.216;13.448;2023-08-21T22:39:22;5.57;;;2.80;;
82028;SDS011;71590;52.216;13.448;2023-08-21T22:44:23;6.90;;;2.60;;
82028;SDS011;71590;52.216;13.448;2023-08-21T22:49:24;6.97;;;2.90;;
82028;SDS011;71590;52.216;13.448;2023-08-21T22:54:25;4.10;;;2.80;;
82028;SDS011;71590;52.216;13.448;2023-08-21T22:59:26;4.80;;;2.72;;
82028;SDS011;71590;52.216;13.448;2023-08-21T23:04:27;5.07;;;2.63;;
82028;SDS011;71590;52.216;13.448;2023-08-21T23:09:28;3.10;;;2.77;;
82028;SDS011;71590;52.216;13.448;2023-08-21T23:14:29;6.00;;;2.53;;
82028;SDS011;71590;52.216;13.448;2023-08-21T23:19:31;5.00;;;2.60;;
82028;SDS011;71590;52.216;13.448;2023-08-21T23:24:32;6.10;;;3.10;;
82028;SDS011;71590;52.216;13.448;2023-08-21T23:29:33;6.20;;;2.97;;
82028;SDS011;71590;52.216;13.448;2023-08-21T23:34:34;5.57;;;2.80;;
82028;SDS011;71590;52.216;13.448;2023-08-21T23:39:35;8.80;;;2.80;;
82028;SDS011;71590;52.216;13.448;2023-08-21T23:44:36;7.20;;;3.20;;
82028;SDS011;71590;52.216;13.448;2023-08-21T23:49:37;4.93;;;2.97;;
82028;SDS011;71590;52.216;13.448;2023-08-21T23:54:38;5.67;;;2.93;;
82028;SDS011;71590;52.216;13.448;2023-08-21T23:59:39;4.17;;;2.43;;
